Accueil
METAR-TAF:

METAR-TAF

Aéroports :

Aérodrome de Granges

Granges, Suisse

latitude: 47-10-53N, longitude: 007-24-59E, altitude: 430 m

Observation

Le bulletin a été fait il y a 29 minutes, à 09:20 UTC
Vent 12 kt de est
Température 19°C
Humidité 40%
Pression 1031 hPa
Visibilité 10 km ou plus
pas de nuages en-dessous de 1500 mètres et pas de cumulonimbus.

METAR: LSZG 270920Z 08012KT CAVOK 19/05 Q1031 NOSIG

Heure: 11:49 (09:49 UTC)

Prévision

Le bulletin a été fait il y a 1 heure et 24 minutes, à 08:25 UTC
Prévision valable du 27 à 09 UTC au 27 à 18 UTC
Vent 10 kt de est
Visibilité 10 km ou plus
pas de nuages en-dessous de 1500 mètres et pas de cumulonimbus.
Temporairement
du 27 à 09 UTC au 27 à 18 UTC
Vent 15 kt de est/nord-est avec des rafales jusqu'à 25 kt

TAF: LSZG 270825Z 2709/2718 08010KT CAVOK TEMPO 2709/2718 06015G25KT

Observations et prévisions météorologiques de plus de 4000 aéroports (messages METAR et TAF).

Les stations disponibles sont représentées par des disques jaunes et rouges sur la carte.

Passer la souris dessus pour voir le nom de la station.

Cliquer dessus pour voir les observations et prévisions météorologiques.

Pour changer de carte: cliquez sur les boutons verts avec une croix noire pour zoomer, sur le bouton vert avec un tiret pour effectuer un zoom arrière, ou sur les flèches vertes pour les cartes adjacentes.


METAR-TAF: